Time;durP1;ratioP1;P1;durP2;ratioP2;P2;SDS_P1;SDS_P2;PMS_P1;PMS_P2;Temp;Humidity;BMP_temperature;BMP_pressure;BME280_temperature;BME280_humidity;BME280_pressure;Samples;Min_cycle;Max_cycle;Signal;HPM_P1;HPM_P2
2023/09/12 00:02:00;;;;;;;15.05;5.72;;;;;;;-145.69;51.58;51870.13;5133811;27;20626;-83
2023/09/12 00:04:27;;;;;;;13.48;5.30;;;;;;;-145.69;51.47;51889.91;5133534;27;20201;-82
2023/09/12 00:06:53;;;;;;;12.70;5.18;;;;;;;-145.69;51.28;51846.34;5133413;27;20219;-81
2023/09/12 00:09:19;;;;;;;12.23;5.03;;;;;;;-145.69;51.76;51858.22;5124112;27;20207;-81
2023/09/12 00:11:46;;;;;;;10.40;5.55;;;;;;;-145.69;51.50;51844.38;5133192;27;20197;-81
2023/09/12 00:14:16;;;;;;;11.77;6.03;;;;;;;-145.69;52.07;51848.34;5133095;27;20480;-81
2023/09/12 00:16:44;;;;;;;18.98;5.28;;;;;;;-145.69;52.38;51866.16;5137261;27;20224;-80
2023/09/12 00:19:10;;;;;;;11.80;4.97;;;;;;;-145.69;52.02;51885.94;5137471;27;20201;-82
2023/09/12 00:21:37;;;;;;;16.20;5.32;;;;;;;-145.69;52.08;51878.03;5137472;27;20203;-81
2023/09/12 00:24:04;;;;;;;16.40;5.63;;;;;;;-145.69;52.14;51878.03;5137377;27;20224;-81
2023/09/12 00:26:31;;;;;;;8.93;4.78;;;;;;;-145.69;53.02;51899.81;5137187;27;20211;-80
2023/09/12 00:28:57;;;;;;;13.40;6.10;;;;;;;-145.69;52.89;51876.06;5136955;27;20651;-81
2023/09/12 00:31:24;;;;;;;10.75;5.28;;;;;;;-145.69;53.20;51858.22;5137128;27;20528;-81
2023/09/12 00:33:52;;;;;;;13.68;5.10;;;;;;;-145.69;53.42;51850.31;5137170;27;20208;-80
2023/09/12 00:36:18;;;;;;;12.52;5.90;;;;;;;-145.69;54.56;51870.13;5136993;27;20247;-80
2023/09/12 00:38:45;;;;;;;15.65;5.45;;;;;;;-145.69;53.64;51864.16;5126012;27;20193;-80
2023/09/12 00:41:11;;;;;;;9.05;5.38;;;;;;;-145.69;54.18;51870.13;5116455;28;20213;-81
2023/09/12 00:43:37;;;;;;;11.75;5.90;;;;;;;-145.69;54.39;51856.25;5116238;28;20212;-81
2023/09/12 00:46:03;;;;;;;15.82;5.85;;;;;;;-145.69;54.63;51878.03;5114980;28;20202;-81
2023/09/12 00:48:30;;;;;;;12.75;5.70;;;;;;;-145.69;54.16;51852.28;5116147;28;20571;-80
2023/09/12 00:50:59;;;;;;;16.75;5.80;;;;;;;-145.69;54.43;51862.19;5116031;28;20575;-81
2023/09/12 00:53:25;;;;;;;10.63;5.93;;;;;;;-145.69;54.74;51897.84;5116159;28;20640;-81
2023/09/12 00:55:56;;;;;;;12.93;6.07;;;;;;;-145.69;54.49;51868.13;5116043;28;20201;-81
2023/09/12 00:58:23;;;;;;;11.05;5.20;;;;;;;-145.69;54.36;51864.16;5116010;27;20197;-80
2023/09/12 01:00:50;;;;;;;11.43;5.60;;;;;;;-145.69;55.49;51874.06;5116187;28;20212;-82
2023/09/12 01:03:17;;;;;;;17.40;6.22;;;;;;;-145.69;54.63;51858.22;5114658;28;20280;-81
2023/09/12 01:05:44;;;;;;;13.80;5.85;;;;;;;-145.69;55.05;51866.16;5115885;28;20239;-82
2023/09/12 01:08:12;;;;;;;11.27;5.88;;;;;;;-145.69;55.29;51868.13;5121112;27;20196;-81
2023/09/12 01:10:39;;;;;;;17.05;5.60;;;;;;;-145.69;54.97;51887.94;5136354;27;20255;-82
2023/09/12 01:13:06;;;;;;;13.98;6.28;;;;;;;-145.69;55.21;51830.50;5135880;27;20681;-81
2023/09/12 01:15:36;;;;;;;16.30;6.65;;;;;;;-145.69;54.74;51882.00;5136021;27;20232;-81
2023/09/12 01:18:02;;;;;;;10.07;6.25;;;;;;;-145.69;54.83;51882.00;5117411;27;20259;-81
2023/09/12 01:20:33;;;;;;;11.32;5.88;;;;;;;-145.69;54.74;51878.03;5118721;27;20204;-81
2023/09/12 01:23:22;;;;;;;15.82;7.00;;;;;;;-145.69;54.59;51878.03;5117979;27;20280;-80
2023/09/12 01:26:18;;;;;;;13.57;6.18;;;;;;;-145.69;54.49;51874.06;5115179;28;20280;-81
2023/09/12 01:28:46;;;;;;;11.05;5.72;;;;;;;-145.69;55.20;51885.94;5115568;27;20198;-81
2023/09/12 01:31:14;;;;;;;13.00;6.22;;;;;;;-145.69;56.19;51899.81;5115370;27;20198;-81
2023/09/12 01:33:44;;;;;;;11.18;5.40;;;;;;;-145.69;56.18;51882.00;5115163;28;20193;-80
2023/09/12 01:36:11;;;;;;;15.30;6.15;;;;;;;-145.69;56.29;51876.06;5115398;28;20201;-80
2023/09/12 01:38:38;;;;;;;13.18;6.53;;;;;;;-145.69;56.82;51905.75;5124069;27;20196;-81
2023/09/12 01:41:05;;;;;;;15.80;6.35;;;;;;;-145.69;56.38;51876.06;5135751;27;20223;-80
2023/09/12 01:43:32;;;;;;;12.95;6.10;;;;;;;-145.69;57.10;51864.16;5135538;27;20204;-80
2023/09/12 01:46:01;;;;;;;11.52;6.32;;;;;;;-145.69;56.57;51870.13;5135558;27;20208;-81
2023/09/12 01:48:34;;;;;;;12.77;7.00;;;;;;;-145.69;56.22;51872.09;5135679;27;20197;-80
2023/09/12 01:51:01;;;;;;;12.88;6.38;;;;;;;-145.69;56.63;51899.81;5135845;27;20240;-81
2023/09/12 01:53:29;;;;;;;11.85;6.40;;;;;;;-145.69;57.00;51905.75;5135603;27;20192;-81
2023/09/12 01:55:58;;;;;;;10.80;6.35;;;;;;;-145.69;57.00;51889.91;5134237;27;20551;-81
2023/09/12 01:58:26;;;;;;;12.27;6.55;;;;;;;-145.69;57.20;51880.00;5135095;27;20220;-81
2023/09/12 02:00:53;;;;;;;15.82;7.00;;;;;;;-145.69;57.10;51903.78;5123422;27;20196;-81
2023/09/12 02:03:21;;;;;;;14.10;7.05;;;;;;;-145.69;57.33;51889.91;5114884;27;20201;-81
2023/09/12 02:05:48;;;;;;;11.95;6.70;;;;;;;-145.69;57.45;51889.91;5114743;27;20202;-81
2023/09/12 02:08:14;;;;;;;11.95;6.95;;;;;;;-145.69;58.06;51895.84;5114720;28;20206;-81
2023/09/12 02:10:41;;;;;;;17.80;6.88;;;;;;;-145.69;58.30;51925.56;5134744;27;20211;-81
2023/09/12 02:13:07;;;;;;;13.90;7.45;;;;;;;-145.69;58.57;51889.91;5135013;27;20200;-82
2023/09/12 02:15:35;;;;;;;11.23;7.05;;;;;;;-145.69;58.48;51870.13;5134263;27;20240;-81
2023/09/12 02:18:03;;;;;;;11.40;7.25;;;;;;;-145.69;58.00;51905.75;5134878;27;20311;-81
2023/09/12 02:20:32;;;;;;;13.48;6.95;;;;;;;-145.69;58.22;51870.13;5135051;27;20196;-81
2023/09/12 02:22:58;;;;;;;17.88;7.30;;;;;;;-145.69;58.32;51882.00;5133677;27;20192;-81
2023/09/12 02:25:25;;;;;;;12.38;6.78;;;;;;;-145.69;58.18;51933.47;5134567;27;20211;-82
2023/09/12 02:27:51;;;;;;;11.95;7.13;;;;;;;-145.69;57.88;51889.91;5134969;27;20647;-81
2023/09/12 02:30:18;;;;;;;15.73;7.18;;;;;;;-145.69;57.80;51893.88;5121189;27;20229;-81
2023/09/12 02:32:45;;;;;;;11.30;6.78;;;;;;;-145.69;57.62;51891.88;5114166;28;20682;-81
2023/09/12 02:35:11;;;;;;;10.63;6.75;;;;;;;-145.69;58.16;51897.84;5113979;28;20205;-80
2023/09/12 02:37:39;;;;;;;13.18;6.72;;;;;;;-145.69;57.77;51901.78;5113008;28;20233;-80
2023/09/12 02:40:07;;;;;;;11.50;6.60;;;;;;;-145.69;57.83;51882.00;5114027;27;20193;-80
2023/09/12 02:42:34;;;;;;;12.00;6.70;;;;;;;-145.69;58.23;51905.75;5114134;28;20289;-81
2023/09/12 02:45:00;;;;;;;16.17;7.57;;;;;;;-145.69;58.96;51909.72;5114105;28;20209;-81
2023/09/12 02:47:27;;;;;;;10.52;7.05;;;;;;;-145.69;58.78;51933.47;5113591;28;20193;-81
2023/09/12 02:49:54;;;;;;;13.93;7.75;;;;;;;-145.69;59.25;51925.56;5113905;28;20197;-81
2023/09/12 02:52:20;;;;;;;10.88;7.10;;;;;;;-145.69;58.83;51883.97;5113993;28;20206;-80
2023/09/12 02:54:48;;;;;;;9.85;7.00;;;;;;;-145.69;58.86;51889.91;5113763;28;20674;-81
2023/09/12 02:57:14;;;;;;;11.00;7.07;;;;;;;-145.69;58.91;51893.88;5104161;28;20228;-81
2023/09/12 02:59:41;;;;;;;17.17;7.20;;;;;;;-145.69;58.28;51917.63;5109188;27;20204;-81
2023/09/12 03:02:07;;;;;;;14.40;7.05;;;;;;;-145.69;58.83;51897.84;5134289;27;20203;-79
2023/09/12 03:04:36;;;;;;;9.75;6.85;;;;;;;-145.69;58.36;51895.84;5134298;27;20211;-81
2023/09/12 03:07:02;;;;;;;12.23;7.15;;;;;;;-145.69;58.07;51915.66;5134053;27;20287;-81
2023/09/12 03:09:29;;;;;;;9.68;6.65;;;;;;;-145.69;57.76;51882.00;5113529;27;20289;-81
2023/09/12 03:11:57;;;;;;;11.90;6.93;;;;;;;-145.69;57.57;51911.69;5113703;28;20199;-81
2023/09/12 03:14:23;;;;;;;12.13;6.93;;;;;;;-145.69;57.65;51905.75;5113282;28;20200;-81
2023/09/12 03:16:50;;;;;;;14.18;7.63;;;;;;;-145.69;57.71;51903.78;5113329;28;20206;-80
2023/09/12 03:19:16;;;;;;;12.77;6.57;;;;;;;-145.69;57.80;51909.72;5113551;28;20205;-81
2023/09/12 03:21:43;;;;;;;16.73;7.90;;;;;;;-145.69;57.42;51943.38;5113356;28;20676;-81
2023/09/12 03:24:09;;;;;;;11.52;7.07;;;;;;;-145.69;57.52;51893.88;5113580;27;20204;-81
2023/09/12 03:26:37;;;;;;;11.80;6.35;;;;;;;-145.69;57.25;51897.84;5112382;28;20201;-80
2023/09/12 03:29:05;;;;;;;11.18;7.03;;;;;;;-145.69;56.94;51874.06;5118125;28;20211;-80
2023/09/12 03:31:32;;;;;;;10.25;6.45;;;;;;;-145.69;57.20;51915.66;5133915;27;20208;-81
2023/09/12 03:33:59;;;;;;;11.60;7.05;;;;;;;-145.69;56.55;51887.94;5133752;27;20201;-81
2023/09/12 03:36:25;;;;;;;12.02;6.80;;;;;;;-145.69;56.57;51883.97;5133733;27;20204;-81
2023/09/12 03:38:52;;;;;;;16.42;7.25;;;;;;;-145.69;56.54;51893.88;5133535;27;20224;-81
2023/09/12 03:41:18;;;;;;;10.23;6.97;;;;;;;-145.69;56.24;51893.88;5133795;27;20197;-82
2023/09/12 03:43:45;;;;;;;10.45;6.78;;;;;;;-145.69;55.87;51889.91;5133910;27;20241;-82
2023/09/12 03:46:12;;;;;;;12.48;6.90;;;;;;;-145.69;55.77;51937.44;5133535;27;20197;-82
2023/09/12 03:48:39;;;;;;;9.48;6.95;;;;;;;-145.69;56.10;51874.06;5134921;27;20643;-82
2023/09/12 03:51:05;;;;;;;9.68;7.03;;;;;;;-145.69;56.31;51887.94;5137841;27;20648;-81
2023/09/12 03:53:32;;;;;;;10.98;7.13;;;;;;;-145.69;56.27;51921.59;5137649;27;20196;-82
2023/09/12 03:55:59;;;;;;;13.05;7.25;;;;;;;-145.69;56.00;51880.00;5137927;27;20216;-81
2023/09/12 03:58:28;;;;;;;12.50;6.78;;;;;;;-145.69;56.02;51887.94;5137617;27;20229;-81
2023/09/12 04:00:54;;;;;;;13.32;7.45;;;;;;;-145.69;56.45;51874.06;5119421;27;20197;-80
2023/09/12 04:03:22;;;;;;;9.45;7.00;;;;;;;-145.69;56.17;51885.94;5117127;28;20206;-81
2023/09/12 04:05:49;;;;;;;9.32;6.93;;;;;;;-145.69;55.97;51901.78;5117123;28;20206;-80
2023/09/12 04:08:16;;;;;;;15.77;7.13;;;;;;;-145.69;55.78;51897.84;5117095;28;20224;-80
2023/09/12 04:10:42;;;;;;;10.52;6.68;;;;;;;-145.69;56.02;51885.94;5116897;28;20201;-82
2023/09/12 04:13:09;;;;;;;11.60;7.13;;;;;;;-145.69;56.12;51883.97;5116931;28;20660;-80
2023/09/12 04:15:35;;;;;;;12.68;6.78;;;;;;;-145.69;56.05;51893.88;5116549;28;20706;-81
2023/09/12 04:18:02;;;;;;;14.60;7.18;;;;;;;-145.69;56.14;51883.97;5116673;28;20237;-81
2023/09/12 04:20:30;;;;;;;13.30;7.05;;;;;;;-145.69;55.89;51878.03;5116853;28;20202;-81
2023/09/12 04:22:56;;;;;;;11.32;6.75;;;;;;;-145.69;56.21;51895.84;5116826;28;20556;-81
2023/09/12 04:25:23;;;;;;;10.57;6.75;;;;;;;-145.69;55.99;51885.94;5116824;28;20648;-81
2023/09/12 04:27:50;;;;;;;10.55;7.07;;;;;;;-145.69;56.16;51893.88;5116656;28;20201;-82
2023/09/12 04:30:16;;;;;;;9.65;6.65;;;;;;;-145.69;56.21;51878.03;5128615;27;20197;-80
2023/09/12 04:32:43;;;;;;;10.65;7.28;;;;;;;-145.69;56.69;51915.66;5136907;27;20201;-80
2023/09/12 04:35:10;;;;;;;12.55;7.18;;;;;;;-145.69;56.98;51901.78;5136968;27;20656;-80
2023/09/12 04:37:38;;;;;;;10.75;6.78;;;;;;;-145.69;56.65;51868.13;5136500;27;20213;-80
2023/09/12 04:40:06;;;;;;;15.80;7.15;;;;;;;-145.69;56.75;51907.72;5136906;27;20196;-81
2023/09/12 04:42:33;;;;;;;11.88;6.93;;;;;;;-145.69;56.50;51917.63;5137076;27;20205;-81
2023/09/12 04:45:00;;;;;;;10.63;6.82;;;;;;;-145.69;56.15;51915.66;5136854;27;20280;-80
2023/09/12 04:47:27;;;;;;;10.23;6.30;;;;;;;-145.69;56.44;51878.03;5118609;27;20236;-81
2023/09/12 04:49:54;;;;;;;13.00;7.60;;;;;;;-145.69;56.08;51901.78;5116064;28;20222;-80
2023/09/12 04:52:20;;;;;;;13.40;6.85;;;;;;;-145.69;55.49;51895.84;5116488;28;20304;-82
2023/09/12 04:54:48;;;;;;;11.20;7.45;;;;;;;-145.69;55.54;51876.06;5124450;27;20221;-82
2023/09/12 04:57:15;;;;;;;12.05;6.97;;;;;;;-145.69;55.32;51897.84;5136316;27;20201;-82
2023/09/12 04:59:41;;;;;;;10.45;7.25;;;;;;;-145.69;54.81;51907.72;5135859;27;20203;-81
2023/09/12 05:02:08;;;;;;;10.18;7.40;;;;;;;-145.69;55.03;51889.91;5118949;27;20561;-81
2023/09/12 05:04:34;;;;;;;12.25;7.03;;;;;;;-145.69;54.81;51883.97;5115679;28;20194;-83
2023/09/12 05:07:01;;;;;;;13.15;6.72;;;;;;;-145.69;54.91;51901.78;5115813;28;20636;-81
2023/09/12 05:09:27;;;;;;;11.30;6.45;;;;;;;-145.69;55.14;51893.88;5115931;28;20208;-81
2023/09/12 05:11:55;;;;;;;10.52;6.60;;;;;;;-145.69;54.51;51907.72;5115905;28;20201;-81
2023/09/12 05:14:21;;;;;;;13.13;7.00;;;;;;;-145.69;54.61;51870.13;5115288;27;20197;-81
2023/09/12 05:16:48;;;;;;;14.13;6.30;;;;;;;-145.69;54.05;51882.00;5115942;28;20209;-81
2023/09/12 05:19:17;;;;;;;11.07;6.70;;;;;;;-145.69;53.80;51895.84;5115561;28;20236;-81
2023/09/12 05:21:44;;;;;;;11.43;6.68;;;;;;;-145.69;54.21;51885.94;5114496;27;20223;-81
2023/09/12 05:24:11;;;;;;;11.20;7.82;;;;;;;-145.69;54.78;51882.00;5116122;27;20832;-81
2023/09/12 05:26:38;;;;;;;12.02;6.88;;;;;;;-145.69;54.23;51866.16;5136046;27;20746;-81
2023/09/12 05:29:06;;;;;;;12.02;6.93;;;;;;;-145.69;53.32;51876.06;5135839;27;20193;-81
2023/09/12 05:31:33;;;;;;;10.27;6.53;;;;;;;-145.69;53.22;51893.88;5135956;27;20617;-81
2023/09/12 05:34:00;;;;;;;10.05;6.55;;;;;;;-145.69;53.22;51899.81;5135594;27;20204;-81
2023/09/12 05:36:26;;;;;;;9.43;6.32;;;;;;;-145.69;53.26;51885.94;5135890;27;20674;-82
2023/09/12 05:38:53;;;;;;;15.35;7.32;;;;;;;-145.69;53.68;51899.81;5132053;27;20319;-81
2023/09/12 05:41:19;;;;;;;9.32;6.68;;;;;;;-145.69;53.23;51903.78;5135545;27;20555;-82
2023/09/12 05:43:46;;;;;;;12.35;6.85;;;;;;;-145.69;53.44;51872.09;5135872;27;20223;-81
2023/09/12 05:46:13;;;;;;;8.70;6.25;;;;;;;-145.69;53.25;51866.16;5135671;27;20212;-81
2023/09/12 05:48:40;;;;;;;14.63;7.38;;;;;;;-145.69;53.55;51905.75;5135873;27;20200;-82
2023/09/12 05:51:06;;;;;;;14.90;7.20;;;;;;;-145.69;53.07;51878.03;5135503;27;20200;-81
2023/09/12 05:53:33;;;;;;;10.98;6.63;;;;;;;-145.69;53.35;51893.88;5135610;27;20295;-81
2023/09/12 05:56:00;;;;;;;10.27;7.00;;;;;;;-145.69;53.40;51862.19;5134700;27;20289;-80
2023/09/12 05:58:26;;;;;;;11.80;6.85;;;;;;;-145.69;52.58;51878.03;5133259;27;20220;-81
2023/09/12 06:00:53;;;;;;;10.60;6.45;;;;;;;-145.69;52.42;51864.16;5114765;28;20201;-81
2023/09/12 06:03:21;;;;;;;11.23;7.15;;;;;;;-145.69;52.44;51862.19;5124756;27;20292;-81
2023/09/12 06:05:47;;;;;;;8.98;6.30;;;;;;;-145.69;52.67;51893.88;5135297;27;20662;-81
2023/09/12 06:08:14;;;;;;;10.48;6.60;;;;;;;-145.69;53.10;51858.22;5134842;27;20208;-81
2023/09/12 06:10:40;;;;;;;11.88;6.28;;;;;;;-145.69;52.58;51862.19;5134907;27;20211;-81
2023/09/12 06:13:07;;;;;;;10.45;6.93;;;;;;;-145.69;53.02;51862.19;5135358;27;20200;-80
2023/09/12 06:15:33;;;;;;;10.10;6.68;;;;;;;-145.69;53.17;51870.13;5134897;27;20247;-81
2023/09/12 06:18:00;;;;;;;10.40;6.82;;;;;;;-145.69;52.34;51874.06;5135023;27;20230;-81
2023/09/12 06:20:28;;;;;;;9.88;6.40;;;;;;;-145.69;52.55;51856.25;5135111;27;20559;-82
2023/09/12 06:22:54;;;;;;;10.35;6.93;;;;;;;-145.69;52.29;51862.19;5134968;27;20200;-81
2023/09/12 06:25:21;;;;;;;12.35;6.68;;;;;;;-145.69;52.31;51870.13;5132699;27;20200;-82
2023/09/12 06:27:47;;;;;;;10.57;6.55;;;;;;;-145.69;52.52;51889.91;5134642;27;20536;-81
2023/09/12 06:30:14;;;;;;;9.65;6.85;;;;;;;-145.69;52.88;51854.28;5134765;27;20197;-82
2023/09/12 06:32:41;;;;;;;11.55;6.90;;;;;;;-145.69;52.62;51862.19;5134967;27;20197;-82
2023/09/12 06:35:10;;;;;;;12.00;7.03;;;;;;;-145.69;52.51;51850.31;5134379;27;20196;-83
2023/09/12 06:37:38;;;;;;;10.82;6.97;;;;;;;-145.69;52.39;51850.31;5134732;27;20203;-81
2023/09/12 06:40:05;;;;;;;10.45;7.40;;;;;;;-145.69;53.14;51850.31;5133497;27;20457;-82
2023/09/12 06:42:32;;;;;;;9.65;6.40;;;;;;;-145.69;52.49;51858.22;5134535;27;20655;-81
2023/09/12 06:44:58;;;;;;;12.55;7.07;;;;;;;-145.69;51.71;51854.28;5134472;27;20200;-82
2023/09/12 06:47:25;;;;;;;11.25;6.85;;;;;;;-145.69;51.50;51846.34;5134809;27;20884;-82
2023/09/12 06:49:51;;;;;;;11.70;7.13;;;;;;;-145.69;51.76;51834.47;5134437;27;20192;-82
2023/09/12 06:52:18;;;;;;;9.88;6.93;;;;;;;-145.69;51.83;51832.50;5134245;27;20652;-81
2023/09/12 06:54:46;;;;;;;9.77;7.35;;;;;;;-145.69;51.38;51844.38;5133242;27;20186;-80
2023/09/12 06:57:12;;;;;;;10.55;6.90;;;;;;;-145.69;52.27;51828.53;5134040;27;20203;-81
2023/09/12 06:59:39;;;;;;;10.00;6.95;;;;;;;-145.69;52.23;51830.50;5134217;27;20228;-82
2023/09/12 07:02:06;;;;;;;9.35;6.47;;;;;;;-145.69;51.97;51826.56;5133990;27;20235;-81
2023/09/12 07:04:32;;;;;;;9.90;7.07;;;;;;;-145.69;51.93;51838.44;5115107;27;20628;-81
2023/09/12 07:06:59;;;;;;;10.05;6.60;;;;;;;-145.69;51.94;51832.50;5113658;28;20556;-81
2023/09/12 07:09:25;;;;;;;11.57;6.88;;;;;;;-145.69;53.32;51814.66;5113126;28;20197;-81
2023/09/12 07:11:53;;;;;;;13.73;7.72;;;;;;;-145.69;54.73;51822.59;5112047;28;20578;-82
2023/09/12 07:14:20;;;;;;;10.93;7.63;;;;;;;-145.69;54.68;51830.50;5112997;28;20288;-81
2023/09/12 07:16:47;;;;;;;11.10;7.35;;;;;;;-145.69;53.57;51830.50;5113457;28;20197;-81
2023/09/12 07:19:13;;;;;;;9.73;7.35;;;;;;;-145.69;54.57;51842.38;5113426;28;20239;-81
2023/09/12 07:21:40;;;;;;;11.52;7.70;;;;;;;-145.69;54.80;51846.34;5113330;28;20204;-82
2023/09/12 07:24:07;;;;;;;14.00;8.20;;;;;;;-145.69;54.82;51828.53;5113035;28;20441;-81
2023/09/12 07:26:33;;;;;;;11.25;7.43;;;;;;;-145.69;54.52;51790.91;5134037;27;20201;-81
2023/09/12 07:29:04;;;;;;;15.32;7.38;;;;;;;-145.69;53.95;51830.50;5133999;27;20207;-81
2023/09/12 07:31:30;;;;;;;12.73;8.05;;;;;;;-145.69;53.82;51840.41;5106958;27;20190;-81
2023/09/12 07:33:57;;;;;;;11.73;7.70;;;;;;;-145.69;53.27;51824.56;5106373;28;20197;-81
2023/09/12 07:36:23;;;;;;;11.75;7.00;;;;;;;-145.69;52.99;51824.56;5112824;28;20442;-81
2023/09/12 07:38:50;;;;;;;11.70;6.80;;;;;;;-145.69;51.34;51794.88;5113297;28;20229;-81
2023/09/12 07:41:16;;;;;;;12.57;7.82;;;;;;;-145.69;50.54;51834.47;5115714;28;20190;-81
2023/09/12 07:43:43;;;;;;;9.55;6.80;;;;;;;-145.69;50.78;51798.81;5092956;28;20206;-81
2023/09/12 07:46:12;;;;;;;9.00;6.60;;;;;;;-145.69;50.62;51790.91;5092739;28;20652;-81
2023/09/12 07:48:38;;;;;;;11.60;6.97;;;;;;;-145.69;50.30;51826.56;5092676;28;20661;-81
2023/09/12 07:51:12;;;;;;;12.60;6.68;;;;;;;-145.69;49.86;51802.78;5092938;28;20194;-81
2023/09/12 07:53:39;;;;;;;10.20;6.80;;;;;;;-145.69;50.49;51810.72;5092860;28;20236;-81
2023/09/12 07:56:06;;;;;;;9.13;6.70;;;;;;;-145.69;50.52;51814.66;5122056;28;20189;-82
2023/09/12 07:58:32;;;;;;;7.03;6.00;;;;;;;-145.69;49.59;51820.59;5133192;27;20226;-81
2023/09/12 08:00:59;;;;;;;9.25;6.38;;;;;;;-145.69;49.23;51838.44;5133309;27;20212;-81
2023/09/12 08:03:27;;;;;;;8.93;6.60;;;;;;;-145.69;48.55;51812.69;5117497;27;20560;-81
2023/09/12 08:05:57;;;;;;;24.73;7.20;;;;;;;-145.69;48.17;51788.94;5112653;28;20663;-82
2023/09/12 08:08:24;;;;;;;9.50;7.00;;;;;;;-145.69;49.15;51792.88;5112852;28;20443;-81
2023/09/12 08:10:50;;;;;;;11.30;7.03;;;;;;;-145.69;48.13;51814.66;5113032;28;20194;-81
2023/09/12 08:13:17;;;;;;;8.23;6.15;;;;;;;-145.69;47.11;51775.06;5112916;28;20205;-81
2023/09/12 08:15:43;;;;;;;9.63;6.68;;;;;;;-145.69;46.95;51781.00;5112936;28;20234;-81
2023/09/12 08:18:11;;;;;;;9.98;6.45;;;;;;;-145.69;46.50;51771.09;5113047;28;20197;-81
2023/09/12 08:20:38;;;;;;;8.82;6.30;;;;;;;-145.69;46.05;51784.97;5112664;28;20221;-81
2023/09/12 08:23:05;;;;;;;9.48;6.28;;;;;;;-145.69;45.35;51796.84;5112725;28;20208;-81
2023/09/12 08:25:31;;;;;;;7.82;6.13;;;;;;;-145.69;44.60;51781.00;5112592;28;20276;-81
2023/09/12 08:27:58;;;;;;;10.20;6.68;;;;;;;-145.69;44.19;51769.13;5112662;28;20686;-81
2023/09/12 08:30:25;;;;;;;8.85;6.45;;;;;;;-145.69;43.88;51769.13;5112640;28;20212;-81
2023/09/12 08:32:51;;;;;;;12.00;6.30;;;;;;;-145.69;43.33;51761.22;5111976;28;20678;-80
2023/09/12 08:35:18;;;;;;;9.60;6.45;;;;;;;-145.69;43.92;51773.09;5129640;27;20193;-81
2023/09/12 08:37:46;;;;;;;8.40;6.38;;;;;;;-145.69;43.84;51767.16;5136352;27;20200;-81
2023/09/12 08:40:12;;;;;;;8.43;6.20;;;;;;;-145.69;43.74;51747.34;5136709;27;20224;-81
2023/09/12 08:42:41;;;;;;;12.23;6.80;;;;;;;-145.69;43.07;51755.25;5136944;27;20220;-81
2023/09/12 08:45:12;;;;;;;10.20;6.65;;;;;;;-145.69;42.82;51755.25;5136935;27;20201;-81
2023/09/12 08:47:41;;;;;;;11.07;6.60;;;;;;;-145.69;42.47;51767.16;5136923;27;20205;-81
2023/09/12 08:50:10;;;;;;;9.52;5.85;;;;;;;-145.69;42.18;51763.19;5136643;27;20215;-81
2023/09/12 08:52:37;;;;;;;9.50;6.72;;;;;;;-145.69;42.17;51727.53;5136385;27;20200;-80
2023/09/12 08:55:06;;;;;;;8.52;6.45;;;;;;;-145.69;42.02;51729.53;5131323;27;20197;-81
2023/09/12 08:57:34;;;;;;;11.25;6.63;;;;;;;-145.69;41.75;51769.13;5116083;27;20202;-81
2023/09/12 09:00:04;;;;;;;9.80;6.65;;;;;;;-145.69;41.64;51723.59;5115703;28;20229;-81
2023/09/12 09:02:31;;;;;;;11.27;6.35;;;;;;;-145.69;41.82;51755.25;5116159;28;20207;-81
2023/09/12 09:04:59;;;;;;;10.23;6.30;;;;;;;-145.69;41.85;51715.66;5115817;28;20197;-82
2023/09/12 09:07:27;;;;;;;9.65;6.68;;;;;;;-145.69;43.71;51747.34;5115855;28;20200;-82
2023/09/12 09:09:53;;;;;;;12.50;6.90;;;;;;;-145.69;43.43;51747.34;5114870;28;20534;-81
2023/09/12 09:12:21;;;;;;;10.32;7.13;;;;;;;-145.69;43.09;51743.38;5115651;28;20224;-81
2023/09/12 09:14:51;;;;;;;10.85;6.88;;;;;;;-145.69;42.86;51735.47;5115458;28;20252;-81
2023/09/12 09:17:17;;;;;;;8.70;6.15;;;;;;;-145.69;42.46;51739.44;5111197;28;20201;-81
2023/09/12 09:19:45;;;;;;;10.13;6.75;;;;;;;-145.69;41.72;51699.81;5108156;27;20220;-81
2023/09/12 09:22:12;;;;;;;8.98;6.82;;;;;;;-145.69;41.42;51723.59;5136020;27;20790;-82
2023/09/12 09:24:39;;;;;;;8.45;6.35;;;;;;;-145.69;41.01;51719.63;5133626;27;20205;-80
2023/09/12 09:27:05;;;;;;;10.13;6.38;;;;;;;-145.69;41.00;51711.72;5115431;28;20197;-80
2023/09/12 09:29:46;;;;;;;8.80;6.00;;;;;;;-145.69;40.13;51691.91;5127337;27;20193;-81
2023/09/12 09:32:18;;;;;;;11.60;6.63;;;;;;;-145.69;39.88;51739.44;5115090;28;20201;-80
2023/09/12 09:34:45;;;;;;;8.57;6.35;;;;;;;-145.69;39.64;51723.59;5115146;27;20200;-80
2023/09/12 09:37:12;;;;;;;9.40;6.53;;;;;;;-145.69;39.57;51707.75;5135798;27;20203;-80
2023/09/12 09:39:38;;;;;;;9.88;6.30;;;;;;;-145.69;39.19;51727.53;5135250;27;20710;-80
2023/09/12 09:42:11;;;;;;;10.07;7.13;;;;;;;-145.69;39.45;51721.59;5135645;27;20596;-80
2023/09/12 09:44:39;;;;;;;8.77;6.50;;;;;;;-145.69;40.57;51693.88;5135396;27;20207;-80
2023/09/12 09:47:06;;;;;;;11.52;6.75;;;;;;;-145.69;41.82;51711.72;5134955;27;20208;-80
2023/09/12 09:49:33;;;;;;;10.35;6.93;;;;;;;-145.69;42.25;51729.53;5135881;27;20201;-81
2023/09/12 09:52:00;;;;;;;9.63;7.20;;;;;;;-145.69;41.74;51723.59;5134580;27;20907;-81
2023/09/12 09:54:27;;;;;;;11.43;6.85;;;;;;;-145.69;40.26;51711.72;5135491;27;20639;-80
2023/09/12 09:56:55;;;;;;;13.15;6.82;;;;;;;-145.69;40.14;51713.69;5135517;27;20199;-81
2023/09/12 09:59:23;;;;;;;8.27;6.53;;;;;;;-145.69;41.11;51695.88;5134671;27;20225;-80
2023/09/12 10:01:56;;;;;;;10.48;6.80;;;;;;;-145.69;39.91;51703.78;5118218;27;20196;-81
2023/09/12 10:04:24;;;;;;;12.60;6.85;;;;;;;-145.69;38.69;51715.66;5113509;28;20197;-81
2023/09/12 10:06:50;;;;;;;9.32;6.32;;;;;;;-145.69;40.16;51689.94;5112834;28;20203;-82
2023/09/12 10:09:18;;;;;;;10.32;6.57;;;;;;;-145.69;39.25;51662.22;5113225;27;20209;-82
2023/09/12 10:11:48;;;;;;;13.30;6.43;;;;;;;-145.69;38.85;51707.75;5093920;28;20697;-81
2023/09/12 10:14:17;;;;;;;9.95;6.70;;;;;;;-145.69;38.16;51699.81;5111125;28;20243;-82
2023/09/12 10:16:47;;;;;;;9.98;6.10;;;;;;;-145.69;38.73;51672.09;5114802;28;20204;-82
2023/09/12 10:19:18;;;;;;;12.25;6.38;;;;;;;-145.69;38.90;51695.88;5114131;28;20254;-82
2023/09/12 10:21:49;;;;;;;10.15;5.95;;;;;;;-145.69;36.35;51731.50;5114616;28;20547;-81
2023/09/12 10:24:16;;;;;;;11.93;6.30;;;;;;;-145.69;37.45;51672.09;5114143;28;20204;-81
2023/09/12 10:26:45;;;;;;;7.18;5.50;;;;;;;-145.69;38.52;51707.75;5114157;28;20296;-81
2023/09/12 10:29:13;;;;;;;7.53;5.70;;;;;;;-145.69;36.98;51695.88;5116109;27;20194;-82
2023/09/12 10:31:40;;;;;;;7.57;5.57;;;;;;;-145.69;37.60;51701.81;5134734;27;20678;-81
2023/09/12 10:34:09;;;;;;;8.27;5.88;;;;;;;-145.69;37.86;51707.75;5104734;27;20285;-81
2023/09/12 10:36:39;;;;;;;10.50;6.03;;;;;;;-145.69;37.14;51705.75;5093780;28;20719;-81
2023/09/12 10:39:07;;;;;;;6.78;5.70;;;;;;;-145.69;36.97;51683.97;5093530;28;20202;-82
2023/09/12 10:41:33;;;;;;;9.27;5.45;;;;;;;-145.69;36.33;51693.88;5093213;28;20553;-81
2023/09/12 10:44:03;;;;;;;7.65;5.28;;;;;;;-145.69;36.05;51680.03;5093856;28;20198;-81
2023/09/12 10:46:30;;;;;;;13.63;5.60;;;;;;;-145.69;36.05;51699.81;5093545;28;20247;-81
2023/09/12 10:48:56;;;;;;;6.97;5.57;;;;;;;-145.69;36.24;51687.94;5093488;28;20194;-81
2023/09/12 10:51:23;;;;;;;8.95;5.70;;;;;;;-145.69;35.29;51691.91;5093194;28;20209;-81
2023/09/12 10:53:53;;;;;;;7.80;5.30;;;;;;;-145.69;35.02;51693.88;5093250;28;20201;-81
2023/09/12 10:56:21;;;;;;;7.72;5.30;;;;;;;-145.69;36.52;51680.03;5093767;28;20267;-82
2023/09/12 10:59:14;;;;;;;13.23;5.50;;;;;;;-145.69;35.60;51689.94;5100640;27;20197;-81
2023/09/12 11:01:42;;;;;;;7.00;4.80;;;;;;;-145.69;34.87;51697.84;5110801;27;20590;-80
2023/09/12 11:04:33;;;;;;;6.22;4.93;;;;;;;-145.69;35.24;51709.72;5114539;27;20648;-81
2023/09/12 11:06:59;;;;;;;6.70;5.18;;;;;;;-145.69;34.52;51682.00;5113374;28;20202;-82
2023/09/12 11:09:28;;;;;;;8.88;5.20;;;;;;;-145.69;34.75;51646.38;5113497;28;20208;-82
2023/09/12 11:11:59;;;;;;;8.70;5.50;;;;;;;-145.69;34.84;51650.31;5113489;28;20640;-82
2023/09/12 11:14:26;;;;;;;9.20;5.35;;;;;;;-145.69;34.77;51652.31;5113321;28;20350;-82